createdAt,value
2022-10-06T00:00:37.113Z,93
2022-10-06T00:01:43.380Z,93
2022-10-06T00:02:48.672Z,93
2022-10-06T00:03:54.943Z,93
2022-10-06T00:05:00.293Z,92.5
2022-10-06T00:06:05.527Z,92.5
2022-10-06T00:07:11.808Z,92
2022-10-06T00:08:18.075Z,92.5
2022-10-06T00:09:23.374Z,92.5
2022-10-06T00:10:28.673Z,92.5
2022-10-06T00:11:34.933Z,92.5
2022-10-06T00:12:41.228Z,92.5
2022-10-06T00:13:47.489Z,92.5
2022-10-06T00:14:53.753Z,92
2022-10-06T00:16:00.020Z,92
2022-10-06T00:17:06.295Z,92
2022-10-06T00:18:12.574Z,92
2022-10-06T00:19:18.839Z,92
2022-10-06T00:20:25.111Z,92.5
2022-10-06T00:21:31.381Z,92.5
2022-10-06T00:22:37.659Z,92.5
2022-10-06T00:23:43.936Z,92.5
2022-10-06T00:24:49.219Z,93
2022-10-06T00:25:55.514Z,93
2022-10-06T00:27:01.761Z,93
2022-10-06T00:28:08.033Z,92.5
2022-10-06T00:29:14.306Z,92
2022-10-06T00:30:20.575Z,92
2022-10-06T00:31:26.868Z,92
2022-10-06T00:32:32.149Z,91.5
2022-10-06T00:33:37.444Z,91.5
2022-10-06T00:34:42.738Z,91.5
2022-10-06T00:35:48.032Z,91.5
2022-10-06T00:36:54.296Z,91.5
2022-10-06T00:38:00.576Z,91.5
2022-10-06T00:39:06.845Z,92
2022-10-06T00:40:13.123Z,92.5
2022-10-06T00:41:19.422Z,92
2022-10-06T00:42:25.660Z,91.5
2022-10-06T00:43:31.928Z,91.5
2022-10-06T00:44:38.207Z,91.5
2022-10-06T00:45:44.475Z,92
2022-10-06T00:46:50.750Z,92
2022-10-06T00:47:57.031Z,92
2022-10-06T00:49:03.302Z,91.5
2022-10-06T00:50:08.585Z,91.5
2022-10-06T00:51:14.851Z,92
2022-10-06T00:52:21.125Z,92.5
2022-10-06T00:53:27.422Z,92.5
2022-10-06T00:54:33.672Z,92.5
2022-10-06T00:55:39.943Z,92.5
2022-10-06T00:56:46.218Z,92.5
2022-10-06T00:57:51.522Z,92.5
2022-10-06T00:58:56.820Z,92.5
2022-10-06T01:00:03.074Z,93
2022-10-06T01:01:08.371Z,93
2022-10-06T01:02:13.661Z,93
2022-10-06T01:03:19.935Z,93
2022-10-06T01:04:26.207Z,92.5
2022-10-06T01:05:32.482Z,93
2022-10-06T01:06:38.767Z,92.5
2022-10-06T01:07:45.029Z,92
2022-10-06T01:08:51.300Z,92
2022-10-06T01:09:57.560Z,92
2022-10-06T01:11:03.841Z,92
2022-10-06T01:12:10.114Z,91.5
2022-10-06T01:13:16.390Z,91.5
2022-10-06T01:14:22.686Z,92
2022-10-06T01:15:28.932Z,92
2022-10-06T01:16:34.224Z,92
2022-10-06T01:17:40.495Z,92
2022-10-06T01:18:46.758Z,92
2022-10-06T01:19:53.029Z,92
2022-10-06T01:20:59.300Z,91.5
2022-10-06T01:22:05.581Z,92.5
2022-10-06T01:23:11.855Z,92.5
2022-10-06T01:24:17.159Z,92
2022-10-06T01:25:22.442Z,92
2022-10-06T01:26:28.708Z,92
2022-10-06T01:27:34.005Z,93
2022-10-06T01:28:39.299Z,93
2022-10-06T01:29:45.583Z,92.5
2022-10-06T01:30:51.837Z,93.5
2022-10-06T01:31:58.114Z,93.5
2022-10-06T01:33:04.391Z,93
2022-10-06T01:34:10.654Z,92.5
2022-10-06T01:35:16.933Z,92.5
2022-10-06T01:36:23.217Z,92
2022-10-06T01:37:29.471Z,92
2022-10-06T01:38:35.741Z,92
2022-10-06T01:39:42.019Z,92
2022-10-06T01:40:48.294Z,91.5
2022-10-06T01:41:54.572Z,91.5
2022-10-06T01:42:59.848Z,91.5
2022-10-06T01:44:06.125Z,92
2022-10-06T01:45:12.433Z,92
2022-10-06T01:46:18.682Z,92
2022-10-06T01:47:24.974Z,91.5
2022-10-06T01:48:31.218Z,92
2022-10-06T01:49:37.483Z,92
2022-10-06T01:50:42.781Z,92
2022-10-06T01:51:48.084Z,92
2022-10-06T01:52:53.370Z,91.5
2022-10-06T01:53:58.660Z,91.5
2022-10-06T01:55:04.940Z,91.5
2022-10-06T01:56:11.206Z,92
2022-10-06T01:57:17.475Z,91.5
2022-10-06T01:58:23.750Z,91.5
2022-10-06T01:59:30.023Z,91.5
2022-10-06T02:00:36.289Z,91.5
2022-10-06T02:01:42.577Z,91.5
2022-10-06T02:02:48.901Z,92
2022-10-06T02:03:55.105Z,92
2022-10-06T02:05:01.380Z,92
2022-10-06T02:06:07.661Z,91.5
2022-10-06T02:07:13.931Z,91.5
2022-10-06T02:08:19.222Z,92
2022-10-06T02:09:25.485Z,92.5
2022-10-06T02:10:31.756Z,92
2022-10-06T02:11:38.026Z,92.5
2022-10-06T02:12:44.306Z,93.5
2022-10-06T02:13:50.581Z,93
2022-10-06T02:14:56.853Z,93
2022-10-06T02:16:02.155Z,92.5
2022-10-06T02:17:07.436Z,92.5
2022-10-06T02:18:12.740Z,92
2022-10-06T02:19:18.023Z,92
2022-10-06T02:20:24.298Z,91.5
2022-10-06T02:21:30.572Z,91.5
2022-10-06T02:22:36.843Z,91.5
2022-10-06T02:23:43.116Z,91
2022-10-06T02:24:49.390Z,91
2022-10-06T02:25:55.660Z,91
2022-10-06T02:27:01.949Z,91
2022-10-06T02:28:08.205Z,91
2022-10-06T02:29:14.472Z,91
2022-10-06T02:30:20.741Z,90.5
2022-10-06T02:31:27.013Z,90.5
2022-10-06T02:32:33.287Z,90.5
2022-10-06T02:33:38.582Z,90.5
2022-10-06T02:34:44.847Z,90.5
2022-10-06T02:35:51.125Z,90
2022-10-06T02:36:57.422Z,90
2022-10-06T02:38:03.670Z,90
2022-10-06T02:39:09.956Z,90.5
2022-10-06T02:40:16.209Z,90.5
2022-10-06T02:41:22.492Z,90.5
2022-10-06T02:42:28.773Z,90.5
2022-10-06T02:43:35.026Z,90.5
2022-10-06T02:44:41.306Z,91
2022-10-06T02:45:47.575Z,91
2022-10-06T02:46:53.845Z,91
2022-10-06T02:47:59.169Z,91
2022-10-06T02:49:04.435Z,91
2022-10-06T02:50:09.727Z,91
2022-10-06T02:51:15.022Z,91
2022-10-06T02:52:21.313Z,91
2022-10-06T02:53:27.606Z,91
2022-10-06T02:54:33.845Z,91
2022-10-06T02:55:40.116Z,91
2022-10-06T02:56:46.407Z,90.5
2022-10-06T02:57:52.659Z,90.5
2022-10-06T02:58:58.921Z,91
2022-10-06T03:00:05.201Z,90.5
2022-10-06T03:01:11.468Z,90.5
2022-10-06T03:02:17.743Z,90.5
2022-10-06T03:03:24.014Z,90.5
2022-10-06T03:04:30.287Z,90.5
2022-10-06T03:05:35.602Z,90.5
2022-10-06T03:06:41.845Z,90.5
2022-10-06T03:07:48.124Z,90.5
2022-10-06T03:08:54.397Z,90.5
2022-10-06T03:10:00.666Z,90.5
2022-10-06T03:11:06.936Z,90.5
2022-10-06T03:12:13.214Z,90.5
2022-10-06T03:13:19.484Z,90.5
2022-10-06T03:14:25.787Z,90.5
2022-10-06T03:15:32.040Z,90.5
2022-10-06T03:16:38.297Z,90.5
2022-10-06T03:17:44.578Z,90.5
2022-10-06T03:18:50.844Z,90.5
2022-10-06T03:19:56.130Z,91
2022-10-06T03:21:02.400Z,91.5
2022-10-06T03:22:08.677Z,91.5
2022-10-06T03:23:14.947Z,91.5
2022-10-06T03:24:21.220Z,91.5
2022-10-06T03:25:27.503Z,91.5
2022-10-06T03:26:33.767Z,91.5
2022-10-06T03:27:40.044Z,92
2022-10-06T03:28:46.303Z,92
2022-10-06T03:29:51.606Z,92
2022-10-06T03:30:57.872Z,91.5
2022-10-06T03:32:04.142Z,91.5
2022-10-06T03:33:09.464Z,91.5
2022-10-06T03:34:14.735Z,91.5
2022-10-06T03:35:21.004Z,91.5
2022-10-06T03:36:26.318Z,91.5
2022-10-06T03:37:31.592Z,91.5
2022-10-06T03:38:37.868Z,92
2022-10-06T03:39:44.135Z,92
2022-10-06T03:40:50.410Z,92
2022-10-06T03:41:56.684Z,92.5
2022-10-06T03:43:02.959Z,92.5
2022-10-06T03:44:09.225Z,92.5
2022-10-06T03:45:15.518Z,93.5
2022-10-06T03:46:21.782Z,93
2022-10-06T03:47:28.071Z,92.5
2022-10-06T03:48:34.323Z,92.5
2022-10-06T03:49:40.595Z,92.5
2022-10-06T03:50:46.870Z,92.5
2022-10-06T03:51:52.151Z,92.5
2022-10-06T03:52:58.417Z,92.5
2022-10-06T03:54:04.699Z,92.5
2022-10-06T03:55:10.964Z,92.5
2022-10-06T03:56:17.258Z,92.5
2022-10-06T03:57:23.514Z,94
2022-10-06T03:58:29.793Z,93.5
2022-10-06T03:59:36.092Z,93.5
2022-10-06T04:00:42.336Z,93
2022-10-06T04:01:48.611Z,93
2022-10-06T04:02:54.898Z,93
2022-10-06T04:04:01.153Z,93
2022-10-06T04:05:07.422Z,93
2022-10-06T04:06:12.709Z,93
2022-10-06T04:07:18.980Z,92.5
2022-10-06T04:08:25.258Z,93
2022-10-06T04:09:31.521Z,92.5
2022-10-06T04:10:37.800Z,92
2022-10-06T04:11:44.072Z,92
2022-10-06T04:12:50.340Z,92
2022-10-06T04:13:56.614Z,92
2022-10-06T04:15:02.897Z,92
2022-10-06T04:16:09.158Z,92
2022-10-06T04:17:15.462Z,91.5
2022-10-06T04:18:21.713Z,91.5
2022-10-06T04:19:27.973Z,91
2022-10-06T04:20:33.278Z,91
2022-10-06T04:21:38.563Z,91
2022-10-06T04:22:43.901Z,91
2022-10-06T04:23:50.123Z,90.5
2022-10-06T04:24:56.446Z,91
2022-10-06T04:26:01.700Z,91
2022-10-06T04:27:06.985Z,91
2022-10-06T04:28:13.261Z,91
2022-10-06T04:29:19.525Z,90.5
2022-10-06T04:30:25.808Z,90.5
2022-10-06T04:31:32.078Z,90.5
2022-10-06T04:32:38.342Z,90.5
2022-10-06T04:33:44.613Z,91
2022-10-06T04:34:50.883Z,91
2022-10-06T04:35:57.162Z,91
2022-10-06T04:37:03.429Z,91
2022-10-06T04:38:09.705Z,91
2022-10-06T04:39:16.027Z,91.5
2022-10-06T04:40:22.250Z,91.5
2022-10-06T04:41:27.546Z,91.5
2022-10-06T04:42:33.831Z,91.5
2022-10-06T04:43:40.083Z,91
2022-10-06T04:44:46.396Z,91.5
2022-10-06T04:45:52.626Z,91.5
2022-10-06T04:46:58.901Z,91
2022-10-06T04:48:05.179Z,91
2022-10-06T04:49:11.446Z,91
2022-10-06T04:50:17.725Z,90.5
2022-10-06T04:51:24.006Z,90.5
2022-10-06T04:52:30.309Z,90.5
2022-10-06T04:53:36.531Z,90.5
2022-10-06T04:54:42.806Z,90.5
2022-10-06T04:55:48.110Z,90.5
2022-10-06T04:56:54.401Z,90.5
2022-10-06T04:58:00.639Z,90.5
2022-10-06T04:59:06.910Z,90.5
2022-10-06T05:00:13.200Z,90.5
2022-10-06T05:01:19.465Z,90.5
2022-10-06T05:02:25.809Z,90.5
2022-10-06T05:03:31.999Z,90.5
2022-10-06T05:04:38.281Z,90.5
2022-10-06T05:05:44.744Z,90.5
2022-10-06T05:06:50.011Z,90.5
2022-10-06T05:07:55.221Z,90.5
2022-10-06T05:09:00.543Z,90.5
2022-10-06T05:10:05.901Z,90.5
2022-10-06T05:11:12.137Z,90.5
2022-10-06T05:12:18.461Z,90.5
2022-10-06T05:13:24.541Z,90.5
2022-10-06T05:14:30.811Z,90.5
2022-10-06T05:15:37.080Z,90
2022-10-06T05:16:43.356Z,90
2022-10-06T05:17:49.626Z,90
2022-10-06T05:18:55.897Z,90.5
2022-10-06T05:20:02.167Z,90
2022-10-06T05:21:08.453Z,90
2022-10-06T05:22:14.717Z,90
2022-10-06T05:23:20.985Z,90
2022-10-06T05:24:26.272Z,90.5
2022-10-06T05:25:32.557Z,90.5
2022-10-06T05:26:38.816Z,90.5
2022-10-06T05:27:45.088Z,90.5
2022-10-06T05:28:51.368Z,90.5
2022-10-06T05:29:57.637Z,90.5
2022-10-06T05:31:03.910Z,90.5
2022-10-06T05:32:09.210Z,90.5
2022-10-06T05:33:14.494Z,90.5
2022-10-06T05:34:20.765Z,90.5
2022-10-06T05:35:27.041Z,90.5
2022-10-06T05:36:33.324Z,90.5
2022-10-06T05:37:39.585Z,90.5
2022-10-06T05:38:45.858Z,90.5
2022-10-06T05:39:52.131Z,90.5
2022-10-06T05:40:57.432Z,90.5
2022-10-06T05:42:02.719Z,90.5
2022-10-06T05:43:08.991Z,90.5
2022-10-06T05:44:15.269Z,90
2022-10-06T05:45:21.549Z,90
2022-10-06T05:46:27.813Z,90.5
2022-10-06T05:47:34.088Z,90
2022-10-06T05:48:40.354Z,90
2022-10-06T05:49:46.620Z,90
2022-10-06T05:50:52.896Z,90
2022-10-06T05:51:59.171Z,90
2022-10-06T05:53:05.441Z,90
2022-10-06T05:54:11.715Z,90
2022-10-06T05:55:17.984Z,90.5
2022-10-06T05:56:23.280Z,90.5
2022-10-06T05:57:29.560Z,90.5
2022-10-06T05:58:35.829Z,90.5
2022-10-06T05:59:42.087Z,91
2022-10-06T06:00:48.372Z,91
2022-10-06T06:01:54.649Z,90.5
2022-10-06T06:03:00.929Z,90.5
2022-10-06T06:04:06.214Z,90.5
2022-10-06T06:05:11.493Z,91
2022-10-06T06:06:16.801Z,91
2022-10-06T06:07:22.084Z,90.5
2022-10-06T06:08:28.355Z,90.5
2022-10-06T06:09:34.622Z,90
2022-10-06T06:10:40.909Z,90
2022-10-06T06:11:47.168Z,90
2022-10-06T06:12:53.447Z,90
2022-10-06T06:13:59.714Z,90.5
2022-10-06T06:15:05.985Z,90.5
2022-10-06T06:16:12.256Z,90.5
2022-10-06T06:17:18.531Z,91
2022-10-06T06:18:24.801Z,90.5
2022-10-06T06:19:31.077Z,90.5
2022-10-06T06:20:37.346Z,91
2022-10-06T06:21:42.638Z,91
2022-10-06T06:22:48.918Z,90.5
2022-10-06T06:23:55.180Z,90.5
2022-10-06T06:25:01.465Z,90.5
2022-10-06T06:26:07.728Z,90.5
2022-10-06T06:27:14.005Z,90
2022-10-06T06:28:20.324Z,90
2022-10-06T06:29:25.582Z,90.5
2022-10-06T06:30:30.861Z,90
2022-10-06T06:31:36.162Z,90
2022-10-06T06:32:41.441Z,90
2022-10-06T06:33:47.732Z,90
2022-10-06T06:34:54.021Z,90.5
2022-10-06T06:36:00.263Z,90
2022-10-06T06:37:06.537Z,90
2022-10-06T06:38:12.806Z,90
2022-10-06T06:39:19.099Z,90
2022-10-06T06:40:25.346Z,90.5
2022-10-06T06:41:31.640Z,90.5
2022-10-06T06:42:37.893Z,90.5
2022-10-06T06:43:44.166Z,90.5
2022-10-06T06:44:50.434Z,90.5
2022-10-06T06:45:56.712Z,90
2022-10-06T06:47:02.029Z,90
2022-10-06T06:48:08.275Z,89.5
2022-10-06T06:49:14.549Z,89.5
2022-10-06T06:50:20.822Z,89.5
2022-10-06T06:51:27.110Z,90
2022-10-06T06:52:33.358Z,90
2022-10-06T06:53:39.633Z,90
2022-10-06T06:54:44.933Z,90
2022-10-06T06:55:50.227Z,89.5
2022-10-06T06:56:55.524Z,90.5
2022-10-06T06:58:00.808Z,90.5
2022-10-06T06:59:07.093Z,90
2022-10-06T07:00:13.375Z,90
2022-10-06T07:01:19.751Z,90
2022-10-06T07:02:25.998Z,90.5
2022-10-06T07:03:32.172Z,90
2022-10-06T07:04:38.438Z,90
2022-10-06T07:05:44.720Z,89.5
2022-10-06T07:06:50.989Z,89.5
2022-10-06T07:07:57.278Z,89.5
2022-10-06T07:09:03.533Z,89.5
2022-10-06T07:10:09.808Z,89.5
2022-10-06T07:11:15.126Z,89.5
2022-10-06T07:12:21.495Z,90.5
2022-10-06T07:13:27.818Z,90
2022-10-06T07:14:34.076Z,90
2022-10-06T07:15:40.355Z,91
2022-10-06T07:16:46.636Z,90
2022-10-06T07:17:52.884Z,89.5
2022-10-06T07:18:59.001Z,90
2022-10-06T07:20:04.302Z,90
2022-10-06T07:21:09.616Z,89.5
2022-10-06T07:22:15.863Z,90
2022-10-06T07:23:22.156Z,89
2022-10-06T07:24:28.406Z,88
2022-10-06T07:25:33.720Z,88.5
2022-10-06T07:26:38.998Z,89.5
2022-10-06T07:27:45.365Z,90
2022-10-06T07:28:51.574Z,90.5
2022-10-06T07:29:57.809Z,91
2022-10-06T07:31:04.088Z,91
2022-10-06T07:32:10.357Z,89
2022-10-06T07:33:16.684Z,89.5
2022-10-06T07:34:22.986Z,89
2022-10-06T07:35:29.223Z,88.5
2022-10-06T07:36:35.550Z,89.5
2022-10-06T07:37:41.717Z,91
2022-10-06T07:38:48.033Z,91
2022-10-06T07:39:54.291Z,91.5
2022-10-06T07:40:59.555Z,92
2022-10-06T07:42:05.825Z,90.5
2022-10-06T07:43:12.107Z,89.5
2022-10-06T07:44:18.382Z,89.5
2022-10-06T07:45:24.720Z,91
2022-10-06T07:46:30.917Z,89.5
2022-10-06T07:47:37.187Z,87.5
2022-10-06T07:48:42.487Z,88
2022-10-06T07:49:47.800Z,89
2022-10-06T07:50:54.059Z,89.5
2022-10-06T07:52:00.348Z,87.5
2022-10-06T07:53:06.587Z,87.5
2022-10-06T07:54:11.953Z,89
2022-10-06T07:55:17.176Z,86.5
2022-10-06T07:56:23.482Z,86
2022-10-06T07:57:29.793Z,86
2022-10-06T07:58:36.031Z,86
2022-10-06T07:59:42.267Z,88
2022-10-06T08:00:48.545Z,86.5
2022-10-06T08:01:54.810Z,87
2022-10-06T08:03:01.118Z,87
2022-10-06T08:04:07.354Z,87.5
2022-10-06T08:05:13.629Z,87.5
2022-10-06T08:06:19.919Z,87
2022-10-06T08:07:26.174Z,86.5
2022-10-06T08:08:32.450Z,87
2022-10-06T08:09:38.715Z,86.5
2022-10-06T08:10:44.011Z,86.5
2022-10-06T08:11:50.284Z,86
2022-10-06T08:12:56.551Z,86
2022-10-06T08:14:02.848Z,86.5
2022-10-06T08:15:09.098Z,85
2022-10-06T08:16:15.368Z,85
2022-10-06T08:17:20.750Z,85
2022-10-06T08:18:25.962Z,85
2022-10-06T08:19:31.247Z,85
2022-10-06T08:20:36.540Z,84
2022-10-06T08:21:42.883Z,84.5
2022-10-06T08:22:49.141Z,84.5
2022-10-06T08:23:55.362Z,84
2022-10-06T08:25:01.635Z,83.5
2022-10-06T08:26:07.900Z,83.5
2022-10-06T08:27:14.305Z,83
2022-10-06T08:28:20.449Z,82
2022-10-06T08:29:26.731Z,82
2022-10-06T08:30:33.004Z,81.5
2022-10-06T08:31:39.258Z,81
2022-10-06T08:32:45.557Z,81.5
2022-10-06T08:33:51.803Z,80.5
2022-10-06T08:34:57.086Z,80.5
2022-10-06T08:36:03.407Z,81
2022-10-06T08:37:09.633Z,83
2022-10-06T08:38:15.943Z,80.5
2022-10-06T08:39:22.183Z,81
2022-10-06T08:40:28.452Z,80
2022-10-06T08:41:34.742Z,78.5
2022-10-06T08:42:40.035Z,79.5
2022-10-06T08:43:45.316Z,78.5
2022-10-06T08:44:50.656Z,78.5
2022-10-06T08:45:55.892Z,78.5
2022-10-06T08:47:02.163Z,79
2022-10-06T08:48:08.500Z,79
2022-10-06T08:49:14.713Z,78.5
2022-10-06T08:50:20.993Z,79.5
2022-10-06T08:51:27.254Z,78.5
2022-10-06T08:52:33.528Z,79
2022-10-06T08:53:39.809Z,78.5
2022-10-06T08:54:46.081Z,78.5
2022-10-06T08:55:52.368Z,78.5
2022-10-06T08:56:58.680Z,78.5
2022-10-06T08:58:04.892Z,78.5
2022-10-06T08:59:11.160Z,78
2022-10-06T09:00:16.470Z,78.5
2022-10-06T09:01:22.743Z,79
2022-10-06T09:02:28.992Z,79
2022-10-06T09:03:35.284Z,79
2022-10-06T09:04:41.543Z,79.5
2022-10-06T09:05:47.809Z,79
2022-10-06T09:06:54.078Z,78.5
2022-10-06T09:08:00.364Z,78.5
2022-10-06T09:09:06.622Z,79
2022-10-06T09:10:12.907Z,79
2022-10-06T09:11:19.167Z,79
2022-10-06T09:12:25.448Z,78.5
2022-10-06T09:13:31.714Z,78.5
2022-10-06T09:14:37.007Z,79
2022-10-06T09:15:43.333Z,79.5
2022-10-06T09:16:49.547Z,78.5
2022-10-06T09:17:55.838Z,78.5
2022-10-06T09:20:06.417Z,78
2022-10-06T09:21:12.686Z,77.5
2022-10-06T09:23:33.937Z,78.5
2022-10-06T09:27:54.674Z,76.5
2022-10-06T09:28:54.683Z,76.5
2022-10-06T09:32:13.499Z,76.5
2022-10-06T09:33:19.710Z,77.5
2022-10-06T09:34:26.161Z,80
2022-10-06T09:35:45.899Z,76
2022-10-06T09:37:44.918Z,77.5
2022-10-06T09:38:50.105Z,78.5
2022-10-06T09:42:08.909Z,77
2022-10-06T09:43:15.197Z,78
2022-10-06T09:44:34.375Z,77.5
2022-10-06T09:45:27.731Z,76
2022-10-06T09:46:33.035Z,76.5
2022-10-06T09:47:45.075Z,76
2022-10-06T09:49:00.382Z,76
2022-10-06T09:49:48.899Z,77
2022-10-06T09:50:55.163Z,75
2022-10-06T09:52:01.484Z,74.5
2022-10-06T09:54:14.007Z,77.5
2022-10-06T09:55:20.256Z,76
2022-10-06T09:56:26.529Z,75.5
2022-10-06T09:57:32.808Z,75.5
2022-10-06T09:58:39.081Z,75.5
2022-10-06T09:59:45.382Z,75.5
2022-10-06T10:00:51.609Z,75.5
2022-10-06T10:01:57.939Z,75
2022-10-06T10:03:04.214Z,76
2022-10-06T10:04:09.454Z,75
2022-10-06T10:05:15.725Z,75
2022-10-06T10:06:21.987Z,74.5
2022-10-06T10:07:28.314Z,74.5
2022-10-06T10:08:34.539Z,74.5
2022-10-06T10:09:40.835Z,75.5
2022-10-06T10:10:47.079Z,74.5
2022-10-06T10:11:52.419Z,74
2022-10-06T10:12:57.678Z,74
2022-10-06T10:14:02.967Z,74
2022-10-06T10:15:08.256Z,73.5
2022-10-06T10:16:14.522Z,73
2022-10-06T10:17:20.822Z,73
2022-10-06T10:18:27.103Z,72.5
2022-10-06T10:19:33.448Z,72.5
2022-10-06T10:20:39.619Z,73.5
2022-10-06T10:21:45.952Z,73.5
2022-10-06T10:22:52.164Z,72.5
2022-10-06T10:23:58.431Z,72
2022-10-06T10:25:04.728Z,71
2022-10-06T10:26:10.976Z,72
2022-10-06T10:27:17.252Z,71.5
2022-10-06T10:28:23.550Z,73
2022-10-06T10:29:28.806Z,73
2022-10-06T10:30:35.078Z,72.5
2022-10-06T10:31:41.352Z,72.5
2022-10-06T10:32:47.638Z,70
2022-10-06T10:33:53.895Z,71
2022-10-06T10:35:00.170Z,72
2022-10-06T10:36:06.444Z,70.5
2022-10-06T10:37:12.711Z,69
2022-10-06T10:38:18.077Z,71.5
2022-10-06T10:39:23.305Z,71
2022-10-06T10:40:29.596Z,71
2022-10-06T10:41:35.840Z,67
2022-10-06T10:42:42.114Z,69
2022-10-06T10:43:48.384Z,71.5
2022-10-06T10:44:54.655Z,70.5
2022-10-06T10:46:00.953Z,70.5
2022-10-06T10:47:07.202Z,70
2022-10-06T10:48:13.469Z,70
2022-10-06T10:49:19.753Z,73
2022-10-06T10:50:26.015Z,70.5
2022-10-06T10:51:32.326Z,69
2022-10-06T10:52:37.663Z,68.5
2022-10-06T10:53:43.883Z,69
2022-10-06T10:54:50.135Z,70.5
2022-10-06T10:55:56.503Z,67.5
2022-10-06T10:57:02.675Z,68
2022-10-06T10:58:09.052Z,66.5
2022-10-06T10:59:15.223Z,68.5
2022-10-06T11:00:21.486Z,66.5
2022-10-06T11:01:26.786Z,67
2022-10-06T11:02:32.076Z,67
2022-10-06T11:03:37.369Z,68
2022-10-06T11:04:42.691Z,69.5
2022-10-06T11:05:48.985Z,66
2022-10-06T11:06:55.235Z,67.5
2022-10-06T11:08:01.487Z,63.5
2022-10-06T11:09:07.785Z,65.5
2022-10-06T11:10:14.018Z,64.5
2022-10-06T11:11:20.294Z,66
2022-10-06T11:12:26.561Z,64
2022-10-06T11:13:32.843Z,65
2022-10-06T11:14:39.136Z,65
2022-10-06T11:15:45.381Z,66
2022-10-06T11:16:51.657Z,65
2022-10-06T11:17:57.924Z,66
2022-10-06T11:19:03.212Z,66.5
2022-10-06T11:20:09.482Z,66
2022-10-06T11:21:15.754Z,66.5
2022-10-06T11:22:22.066Z,65
2022-10-06T11:23:28.307Z,66
2022-10-06T11:24:34.584Z,67
2022-10-06T11:25:40.887Z,64.5
2022-10-06T11:26:46.152Z,66
2022-10-06T11:27:51.458Z,64.5
2022-10-06T11:28:56.733Z,66.5
2022-10-06T11:30:03.001Z,64
2022-10-06T11:31:08.291Z,64.5
2022-10-06T11:32:14.590Z,64.5
2022-10-06T11:33:20.880Z,63.5
2022-10-06T11:34:27.109Z,64.5
2022-10-06T11:35:33.378Z,66
2022-10-06T11:36:39.659Z,64.5
2022-10-06T11:37:45.926Z,64.5
2022-10-06T11:38:52.200Z,63.5
2022-10-06T11:39:58.467Z,66
2022-10-06T11:41:04.746Z,65.5
2022-10-06T11:42:11.037Z,68
2022-10-06T11:43:17.287Z,64.5
2022-10-06T11:44:23.555Z,64.5
2022-10-06T11:45:28.851Z,69
2022-10-06T11:46:35.119Z,65
2022-10-06T11:47:41.382Z,65.5
2022-10-06T11:48:47.681Z,65
2022-10-06T11:49:53.932Z,65.5
2022-10-06T11:51:00.261Z,67.5
2022-10-06T11:52:05.515Z,65
2022-10-06T11:53:10.813Z,66
2022-10-06T11:54:17.081Z,64.5
2022-10-06T11:55:23.337Z,64.5
2022-10-06T11:56:29.612Z,66
2022-10-06T11:57:35.888Z,64.5
2022-10-06T11:58:42.200Z,65
2022-10-06T11:59:48.430Z,64
2022-10-06T12:00:54.696Z,65
2022-10-06T12:02:00.965Z,63
2022-10-06T12:03:07.252Z,63.5
2022-10-06T12:04:13.507Z,64.5
2022-10-06T12:05:19.786Z,65
2022-10-06T12:06:26.058Z,64
2022-10-06T12:07:31.378Z,64.5
2022-10-06T12:08:37.629Z,64
2022-10-06T12:09:43.890Z,64
2022-10-06T12:10:50.188Z,65.5
2022-10-06T12:11:56.526Z,66
2022-10-06T12:13:02.704Z,67.5
2022-10-06T12:14:09.008Z,65.5
2022-10-06T12:15:14.281Z,65.5
2022-10-06T12:16:19.562Z,64.5
2022-10-06T12:17:25.921Z,66
2022-10-06T12:18:32.115Z,63.5
2022-10-06T12:19:38.478Z,65.5
2022-10-06T12:20:44.654Z,67.5
2022-10-06T12:21:50.929Z,66
2022-10-06T12:22:57.207Z,65.5
2022-10-06T12:24:03.463Z,66.5
2022-10-06T12:25:09.738Z,66
2022-10-06T12:26:16.008Z,66.5
2022-10-06T12:27:22.287Z,65
2022-10-06T12:28:28.556Z,64
2022-10-06T12:29:34.836Z,63.5
2022-10-06T12:30:40.116Z,64.5
2022-10-06T12:31:46.390Z,65
2022-10-06T12:32:52.742Z,64.5
2022-10-06T12:33:58.980Z,67
2022-10-06T12:35:05.202Z,65
2022-10-06T12:36:11.525Z,65.5
2022-10-06T12:37:17.751Z,67.5
2022-10-06T12:38:23.084Z,64.5
2022-10-06T12:39:28.357Z,64
2022-10-06T12:40:34.607Z,64
2022-10-06T12:41:39.919Z,66.5
2022-10-06T12:42:45.199Z,65
2022-10-06T12:43:51.473Z,63.5
2022-10-06T12:44:56.765Z,63.5
2022-10-06T12:46:02.060Z,64
2022-10-06T12:47:08.339Z,64.5
2022-10-06T12:48:14.675Z,65
2022-10-06T12:49:20.869Z,63.5
2022-10-06T12:50:27.158Z,62.5
2022-10-06T12:51:33.425Z,65.5
2022-10-06T12:52:39.688Z,63.5
2022-10-06T12:53:45.959Z,65
2022-10-06T12:54:52.314Z,65
2022-10-06T12:55:58.500Z,63.5
2022-10-06T12:57:04.787Z,61.5
2022-10-06T12:58:11.046Z,63.5
2022-10-06T12:59:17.321Z,63
2022-10-06T13:00:23.597Z,64
2022-10-06T13:01:28.881Z,65.5
2022-10-06T13:02:35.157Z,63.5
2022-10-06T13:03:41.433Z,62.5
2022-10-06T13:04:47.696Z,62.5
2022-10-06T13:05:53.992Z,64.5
2022-10-06T13:07:00.239Z,63
2022-10-06T13:08:05.539Z,61.5
2022-10-06T13:09:10.827Z,63.5
2022-10-06T13:10:17.108Z,65.5
2022-10-06T13:11:22.397Z,62
2022-10-06T13:12:27.694Z,63
2022-10-06T13:13:33.965Z,64
2022-10-06T13:14:40.238Z,64
2022-10-06T13:15:46.527Z,64
2022-10-06T13:16:52.773Z,64
2022-10-06T13:17:59.063Z,63.5
2022-10-06T13:19:05.354Z,65
2022-10-06T13:20:11.605Z,63
2022-10-06T13:21:17.870Z,63.5
2022-10-06T13:22:24.139Z,63.5
2022-10-06T13:23:30.421Z,63.5
2022-10-06T13:24:36.677Z,64.5
2022-10-06T13:25:42.965Z,65
2022-10-06T13:26:48.258Z,63.5
2022-10-06T13:27:54.627Z,64.5
2022-10-06T13:29:00.811Z,63.5
2022-10-06T13:30:07.058Z,63.5
2022-10-06T13:31:13.328Z,64.5
2022-10-06T13:32:19.605Z,65.5
2022-10-06T13:33:25.891Z,64
2022-10-06T13:34:31.188Z,64.5
2022-10-06T13:35:36.486Z,65
2022-10-06T13:36:41.788Z,65
2022-10-06T13:37:47.050Z,65.5
2022-10-06T13:38:53.313Z,64.5
2022-10-06T13:39:59.590Z,65
2022-10-06T13:41:05.869Z,64.5
2022-10-06T13:42:12.169Z,64.5
2022-10-06T13:43:18.409Z,64.5
2022-10-06T13:44:24.678Z,66
2022-10-06T13:45:30.957Z,65
2022-10-06T13:46:37.241Z,65.5
2022-10-06T13:47:43.497Z,65.5
2022-10-06T13:48:49.765Z,66.5
2022-10-06T13:49:56.064Z,65
2022-10-06T13:51:02.314Z,64.5
2022-10-06T13:52:07.607Z,66
2022-10-06T13:53:13.873Z,66
2022-10-06T13:54:20.144Z,66.5
2022-10-06T13:55:26.479Z,65.5
2022-10-06T13:56:32.692Z,65.5
2022-10-06T13:57:38.998Z,64.5
2022-10-06T13:58:45.342Z,64.5
2022-10-06T13:59:50.528Z,65.5
2022-10-06T14:00:55.821Z,65
2022-10-06T14:02:02.095Z,66
2022-10-06T14:03:08.483Z,65
2022-10-06T14:04:14.644Z,65
2022-10-06T14:05:20.911Z,66.5
2022-10-06T14:06:27.266Z,66
2022-10-06T14:07:32.519Z,66.5
2022-10-06T14:08:37.789Z,66
2022-10-06T14:09:44.046Z,65
2022-10-06T14:10:50.365Z,65.5
2022-10-06T14:11:56.601Z,67
2022-10-06T14:13:02.855Z,67.5
2022-10-06T14:14:09.127Z,66
2022-10-06T14:15:15.408Z,66.5
2022-10-06T14:16:21.698Z,67.5
2022-10-06T14:17:27.946Z,66.5
2022-10-06T14:18:34.223Z,66.5
2022-10-06T14:19:40.549Z,68
2022-10-06T14:20:46.761Z,67
2022-10-06T14:21:53.090Z,68
2022-10-06T14:22:58.318Z,68
2022-10-06T14:24:04.619Z,68.5
2022-10-06T14:25:10.891Z,68.5
2022-10-06T14:26:17.159Z,66.5
2022-10-06T14:27:23.417Z,67
2022-10-06T14:28:29.716Z,68
2022-10-06T14:29:35.977Z,67.5
2022-10-06T14:30:41.253Z,67.5
2022-10-06T14:31:46.538Z,67.5
2022-10-06T14:32:51.850Z,67
2022-10-06T14:33:57.133Z,68.5
2022-10-06T14:35:03.439Z,67.5
2022-10-06T14:36:09.710Z,67
2022-10-06T14:37:15.946Z,67.5
2022-10-06T14:38:22.231Z,67
2022-10-06T14:39:28.511Z,67.5
2022-10-06T14:40:34.773Z,68.5
2022-10-06T14:41:41.039Z,67
2022-10-06T14:42:47.321Z,67.5
2022-10-06T14:43:53.575Z,68
2022-10-06T14:44:59.848Z,68
2022-10-06T14:46:06.123Z,68.5
2022-10-06T14:47:12.397Z,68
2022-10-06T14:48:17.709Z,68.5
2022-10-06T14:49:23.953Z,68.5
2022-10-06T14:50:30.250Z,69
2022-10-06T14:51:36.499Z,69
2022-10-06T14:52:42.774Z,69
2022-10-06T14:53:49.048Z,68.5
2022-10-06T14:54:55.316Z,69
2022-10-06T14:56:00.615Z,69
2022-10-06T14:57:05.906Z,68.5
2022-10-06T14:58:12.172Z,69
2022-10-06T14:59:18.453Z,70.5
2022-10-06T15:00:24.717Z,69.5
2022-10-06T15:01:30.019Z,70.5
2022-10-06T15:02:35.302Z,70
2022-10-06T15:03:41.588Z,70
2022-10-06T15:04:47.850Z,71.5
2022-10-06T15:05:54.123Z,70
2022-10-06T15:07:00.396Z,70
2022-10-06T15:08:06.672Z,69.5
2022-10-06T15:09:12.935Z,70.5
2022-10-06T15:10:19.222Z,70
2022-10-06T15:11:25.481Z,70.5
2022-10-06T15:12:31.750Z,70.5
2022-10-06T15:13:38.028Z,70.5
2022-10-06T15:14:44.299Z,70
2022-10-06T15:15:50.592Z,71
2022-10-06T15:16:55.905Z,70.5
2022-10-06T15:18:02.193Z,70.5
2022-10-06T15:19:08.410Z,71.5